sensor_id;sensor_type;location;lat;lon;timestamp;temperature;humidity
10891;DHT22;5498;50.928;11.598;2023-02-01T00:00:12;6.60;84.40
10891;DHT22;5498;50.928;11.598;2023-02-01T00:03:14;6.60;84.50
10891;DHT22;5498;50.928;11.598;2023-02-01T00:06:16;6.60;84.20
10891;DHT22;5498;50.928;11.598;2023-02-01T00:09:18;6.60;84.20
10891;DHT22;5498;50.928;11.598;2023-02-01T00:12:19;6.60;84.20
10891;DHT22;5498;50.928;11.598;2023-02-01T00:15:23;6.60;83.90
10891;DHT22;5498;50.928;11.598;2023-02-01T00:18:24;6.50;83.60
10891;DHT22;5498;50.928;11.598;2023-02-01T00:21:27;6.50;83.80
10891;DHT22;5498;50.928;11.598;2023-02-01T00:24:29;6.50;83.60
10891;DHT22;5498;50.928;11.598;2023-02-01T00:27:31;6.50;83.80
10891;DHT22;5498;50.928;11.598;2023-02-01T00:30:34;6.50;83.80
10891;DHT22;5498;50.928;11.598;2023-02-01T00:33:36;6.40;83.90
10891;DHT22;5498;50.928;11.598;2023-02-01T00:36:38;6.40;83.90
10891;DHT22;5498;50.928;11.598;2023-02-01T00:39:40;6.40;83.80
10891;DHT22;5498;50.928;11.598;2023-02-01T00:42:42;6.40;83.80
10891;DHT22;5498;50.928;11.598;2023-02-01T00:45:46;5.90;83.70
10891;DHT22;5498;50.928;11.598;2023-02-01T00:48:48;6.40;83.80
10891;DHT22;5498;50.928;11.598;2023-02-01T00:51:50;6.40;84.00
10891;DHT22;5498;50.928;11.598;2023-02-01T00:54:52;6.40;83.80
10891;DHT22;5498;50.928;11.598;2023-02-01T00:57:54;6.40;83.80
10891;DHT22;5498;50.928;11.598;2023-02-01T01:01:06;6.40;83.30
10891;DHT22;5498;50.928;11.598;2023-02-01T01:04:09;6.40;83.50
10891;DHT22;5498;50.928;11.598;2023-02-01T01:07:11;6.40;83.20
10891;DHT22;5498;50.928;11.598;2023-02-01T01:10:13;6.40;83.30
10891;DHT22;5498;50.928;11.598;2023-02-01T01:13:15;6.40;83.40
10891;DHT22;5498;50.928;11.598;2023-02-01T01:16:19;6.40;83.10
10891;DHT22;5498;50.928;11.598;2023-02-01T01:19:22;6.40;83.30
10891;DHT22;5498;50.928;11.598;2023-02-01T01:22:24;6.40;82.70
10891;DHT22;5498;50.928;11.598;2023-02-01T01:25:25;6.40;82.60
10891;DHT22;5498;50.928;11.598;2023-02-01T01:28:27;6.40;82.70
10891;DHT22;5498;50.928;11.598;2023-02-01T01:31:31;6.40;82.60
10891;DHT22;5498;50.928;11.598;2023-02-01T01:34:33;6.40;82.70
10891;DHT22;5498;50.928;11.598;2023-02-01T01:37:35;6.40;82.50
10891;DHT22;5498;50.928;11.598;2023-02-01T01:40:37;6.40;82.20
10891;DHT22;5498;50.928;11.598;2023-02-01T01:43:52;6.40;82.20
10891;DHT22;5498;50.928;11.598;2023-02-01T01:46:57;6.40;82.40
10891;DHT22;5498;50.928;11.598;2023-02-01T01:49:59;6.40;82.20
10891;DHT22;5498;50.928;11.598;2023-02-01T01:53:05;6.40;82.30
10891;DHT22;5498;50.928;11.598;2023-02-01T01:56:09;6.40;82.30
10891;DHT22;5498;50.928;11.598;2023-02-01T01:59:11;6.40;82.20
10891;DHT22;5498;50.928;11.598;2023-02-01T02:02:15;6.40;81.90
10891;DHT22;5498;50.928;11.598;2023-02-01T02:05:18;6.30;81.80
10891;DHT22;5498;50.928;11.598;2023-02-01T02:08:21;6.40;82.20
10891;DHT22;5498;50.928;11.598;2023-02-01T02:11:25;6.30;81.90
10891;DHT22;5498;50.928;11.598;2023-02-01T02:14:27;6.30;81.90
10891;DHT22;5498;50.928;11.598;2023-02-01T02:17:36;6.40;82.10
10891;DHT22;5498;50.928;11.598;2023-02-01T02:20:58;6.30;82.00
10891;DHT22;5498;50.928;11.598;2023-02-01T02:24:42;6.40;81.90
10891;DHT22;5498;50.928;11.598;2023-02-01T02:28:00;6.40;82.00
10891;DHT22;5498;50.928;11.598;2023-02-01T02:31:30;6.30;81.60
10891;DHT22;5498;50.928;11.598;2023-02-01T02:34:47;6.30;81.40
10891;DHT22;5498;50.928;11.598;2023-02-01T02:37:56;6.30;81.60
10891;DHT22;5498;50.928;11.598;2023-02-01T02:41:09;6.30;81.60
10891;DHT22;5498;50.928;11.598;2023-02-01T02:44:39;6.30;81.60
10891;DHT22;5498;50.928;11.598;2023-02-01T02:48:11;6.30;81.50
10891;DHT22;5498;50.928;11.598;2023-02-01T02:51:21;6.30;81.30
10891;DHT22;5498;50.928;11.598;2023-02-01T02:54:47;6.30;81.40
10891;DHT22;5498;50.928;11.598;2023-02-01T02:57:52;6.30;81.30
10891;DHT22;5498;50.928;11.598;2023-02-01T03:01:12;6.30;81.10
10891;DHT22;5498;50.928;11.598;2023-02-01T03:04:31;6.20;81.00
10891;DHT22;5498;50.928;11.598;2023-02-01T03:07:55;6.20;80.90
10891;DHT22;5498;50.928;11.598;2023-02-01T03:11:06;6.20;81.30
10891;DHT22;5498;50.928;11.598;2023-02-01T03:14:10;6.20;81.30
10891;DHT22;5498;50.928;11.598;2023-02-01T03:17:14;6.20;81.40
10891;DHT22;5498;50.928;11.598;2023-02-01T03:20:18;6.20;81.50
10891;DHT22;5498;50.928;11.598;2023-02-01T03:23:26;6.20;81.50
10891;DHT22;5498;50.928;11.598;2023-02-01T03:26:31;6.10;81.70
10891;DHT22;5498;50.928;11.598;2023-02-01T03:29:39;6.10;81.80
10891;DHT22;5498;50.928;11.598;2023-02-01T03:32:44;6.10;82.00
10891;DHT22;5498;50.928;11.598;2023-02-01T03:36:11;6.10;82.10
10891;DHT22;5498;50.928;11.598;2023-02-01T03:39:22;6.10;82.40
10891;DHT22;5498;50.928;11.598;2023-02-01T03:42:30;6.10;82.40
10891;DHT22;5498;50.928;11.598;2023-02-01T03:45:39;6.10;82.50
10891;DHT22;5498;50.928;11.598;2023-02-01T03:48:44;6.10;82.60
10891;DHT22;5498;50.928;11.598;2023-02-01T03:51:47;6.00;82.40
10891;DHT22;5498;50.928;11.598;2023-02-01T03:54:52;6.00;82.50
10891;DHT22;5498;50.928;11.598;2023-02-01T03:57:59;6.10;82.60
10891;DHT22;5498;50.928;11.598;2023-02-01T04:01:04;6.00;82.50
10891;DHT22;5498;50.928;11.598;2023-02-01T04:04:06;6.00;82.50
10891;DHT22;5498;50.928;11.598;2023-02-01T04:07:09;6.00;82.70
10891;DHT22;5498;50.928;11.598;2023-02-01T04:10:14;6.00;82.80
10891;DHT22;5498;50.928;11.598;2023-02-01T04:13:17;6.00;83.20
10891;DHT22;5498;50.928;11.598;2023-02-01T04:16:19;5.90;83.30
10891;DHT22;5498;50.928;11.598;2023-02-01T04:19:20;5.90;83.40
10891;DHT22;5498;50.928;11.598;2023-02-01T04:22:22;6.00;83.70
10891;DHT22;5498;50.928;11.598;2023-02-01T04:25:26;5.90;83.80
10891;DHT22;5498;50.928;11.598;2023-02-01T04:28:28;5.90;83.80
10891;DHT22;5498;50.928;11.598;2023-02-01T04:31:30;5.90;84.00
10891;DHT22;5498;50.928;11.598;2023-02-01T04:34:32;6.00;84.20
10891;DHT22;5498;50.928;11.598;2023-02-01T04:37:36;6.00;84.50
10891;DHT22;5498;50.928;11.598;2023-02-01T04:40:40;6.00;84.80
10891;DHT22;5498;50.928;11.598;2023-02-01T04:43:41;6.00;85.50
10891;DHT22;5498;50.928;11.598;2023-02-01T04:46:44;6.00;85.60
10891;DHT22;5498;50.928;11.598;2023-02-01T04:49:47;6.00;86.10
10891;DHT22;5498;50.928;11.598;2023-02-01T04:52:49;6.00;86.10
10891;DHT22;5498;50.928;11.598;2023-02-01T04:55:52;6.00;86.20
10891;DHT22;5498;50.928;11.598;2023-02-01T04:58:54;6.00;86.20
10891;DHT22;5498;50.928;11.598;2023-02-01T05:01:56;6.00;86.00
10891;DHT22;5498;50.928;11.598;2023-02-01T05:04:58;5.90;85.80
10891;DHT22;5498;50.928;11.598;2023-02-01T05:08:00;5.90;85.80
10891;DHT22;5498;50.928;11.598;2023-02-01T05:11:03;5.90;85.80
10891;DHT22;5498;50.928;11.598;2023-02-01T05:14:05;5.90;86.00
10891;DHT22;5498;50.928;11.598;2023-02-01T05:17:06;5.90;85.80
10891;DHT22;5498;50.928;11.598;2023-02-01T05:20:09;5.80;85.70
10891;DHT22;5498;50.928;11.598;2023-02-01T05:23:12;5.80;86.00
10891;DHT22;5498;50.928;11.598;2023-02-01T05:26:15;5.80;86.00
10891;DHT22;5498;50.928;11.598;2023-02-01T05:29:17;5.80;86.00
10891;DHT22;5498;50.928;11.598;2023-02-01T05:32:20;5.80;86.10
10891;DHT22;5498;50.928;11.598;2023-02-01T05:35:21;5.80;85.90
10891;DHT22;5498;50.928;11.598;2023-02-01T05:38:23;5.80;86.10
10891;DHT22;5498;50.928;11.598;2023-02-01T05:41:27;5.80;86.10
10891;DHT22;5498;50.928;11.598;2023-02-01T05:44:29;5.80;85.90
10891;DHT22;5498;50.928;11.598;2023-02-01T05:47:30;5.70;85.90
10891;DHT22;5498;50.928;11.598;2023-02-01T05:50:32;5.70;85.80
10891;DHT22;5498;50.928;11.598;2023-02-01T05:53:35;5.70;86.00
10891;DHT22;5498;50.928;11.598;2023-02-01T05:56:39;5.70;86.60
10891;DHT22;5498;50.928;11.598;2023-02-01T05:59:42;5.80;86.60
10891;DHT22;5498;50.928;11.598;2023-02-01T06:02:45;5.80;86.20
10891;DHT22;5498;50.928;11.598;2023-02-01T06:05:46;5.80;85.90
10891;DHT22;5498;50.928;11.598;2023-02-01T06:08:49;5.80;85.70
10891;DHT22;5498;50.928;11.598;2023-02-01T06:11:52;5.80;84.80
10891;DHT22;5498;50.928;11.598;2023-02-01T06:14:54;5.80;84.80
10891;DHT22;5498;50.928;11.598;2023-02-01T06:17:55;5.80;84.70
10891;DHT22;5498;50.928;11.598;2023-02-01T06:20:59;5.80;84.70
10891;DHT22;5498;50.928;11.598;2023-02-01T06:24:01;5.80;84.70
10891;DHT22;5498;50.928;11.598;2023-02-01T06:27:04;5.80;84.60
10891;DHT22;5498;50.928;11.598;2023-02-01T06:30:09;5.80;84.30
10891;DHT22;5498;50.928;11.598;2023-02-01T06:33:14;5.80;84.50
10891;DHT22;5498;50.928;11.598;2023-02-01T06:36:16;5.80;84.50
10891;DHT22;5498;50.928;11.598;2023-02-01T06:39:19;5.80;84.20
10891;DHT22;5498;50.928;11.598;2023-02-01T06:42:22;5.80;84.10
10891;DHT22;5498;50.928;11.598;2023-02-01T06:45:24;5.80;84.20
10891;DHT22;5498;50.928;11.598;2023-02-01T06:48:26;5.90;84.00
10891;DHT22;5498;50.928;11.598;2023-02-01T06:51:29;5.90;83.70
10891;DHT22;5498;50.928;11.598;2023-02-01T06:54:31;5.90;83.60
10891;DHT22;5498;50.928;11.598;2023-02-01T06:57:35;5.90;83.30
10891;DHT22;5498;50.928;11.598;2023-02-01T07:00:37;5.90;83.00
10891;DHT22;5498;50.928;11.598;2023-02-01T07:03:39;5.90;82.80
10891;DHT22;5498;50.928;11.598;2023-02-01T07:06:42;5.90;82.70
10891;DHT22;5498;50.928;11.598;2023-02-01T07:09:44;5.90;82.50
10891;DHT22;5498;50.928;11.598;2023-02-01T07:12:47;5.90;82.30
10891;DHT22;5498;50.928;11.598;2023-02-01T07:15:49;5.90;82.00
10891;DHT22;5498;50.928;11.598;2023-02-01T07:18:52;5.90;82.00
10891;DHT22;5498;50.928;11.598;2023-02-01T07:21:54;5.90;82.00
10891;DHT22;5498;50.928;11.598;2023-02-01T07:24:55;5.90;82.00
10891;DHT22;5498;50.928;11.598;2023-02-01T07:27:59;6.10;82.10
10891;DHT22;5498;50.928;11.598;2023-02-01T07:31:04;5.90;81.70
10891;DHT22;5498;50.928;11.598;2023-02-01T07:34:06;5.90;81.80
10891;DHT22;5498;50.928;11.598;2023-02-01T07:37:08;6.00;81.60
10891;DHT22;5498;50.928;11.598;2023-02-01T07:40:11;6.00;81.40
10891;DHT22;5498;50.928;11.598;2023-02-01T07:43:14;6.10;81.90
10891;DHT22;5498;50.928;11.598;2023-02-01T07:46:17;6.10;81.60
10891;DHT22;5498;50.928;11.598;2023-02-01T07:49:19;6.10;81.70
10891;DHT22;5498;50.928;11.598;2023-02-01T07:52:21;6.20;81.80
10891;DHT22;5498;50.928;11.598;2023-02-01T07:55:23;6.20;81.70
10891;DHT22;5498;50.928;11.598;2023-02-01T07:58:26;6.20;81.50
10891;DHT22;5498;50.928;11.598;2023-02-01T08:01:29;6.30;81.50
10891;DHT22;5498;50.928;11.598;2023-02-01T08:04:31;6.30;81.20
10891;DHT22;5498;50.928;11.598;2023-02-01T08:07:33;6.30;81.00
10891;DHT22;5498;50.928;11.598;2023-02-01T08:10:34;6.30;81.00
10891;DHT22;5498;50.928;11.598;2023-02-01T08:13:38;6.40;81.20
10891;DHT22;5498;50.928;11.598;2023-02-01T08:16:40;6.30;81.50
10891;DHT22;5498;50.928;11.598;2023-02-01T08:19:42;6.40;81.50
10891;DHT22;5498;50.928;11.598;2023-02-01T08:22:43;6.40;82.00
10891;DHT22;5498;50.928;11.598;2023-02-01T08:25:46;6.40;82.40
10891;DHT22;5498;50.928;11.598;2023-02-01T08:28:52;6.40;82.60
10891;DHT22;5498;50.928;11.598;2023-02-01T08:31:55;6.40;82.60
10891;DHT22;5498;50.928;11.598;2023-02-01T08:34:56;6.40;82.60
10891;DHT22;5498;50.928;11.598;2023-02-01T08:37:58;6.50;82.70
10891;DHT22;5498;50.928;11.598;2023-02-01T08:41:04;6.50;82.60
10891;DHT22;5498;50.928;11.598;2023-02-01T08:44:08;6.60;82.70
10891;DHT22;5498;50.928;11.598;2023-02-01T08:47:10;6.60;82.60
10891;DHT22;5498;50.928;11.598;2023-02-01T08:50:12;6.60;82.70
10891;DHT22;5498;50.928;11.598;2023-02-01T08:53:14;6.60;83.10
10891;DHT22;5498;50.928;11.598;2023-02-01T08:56:17;6.60;83.60
10891;DHT22;5498;50.928;11.598;2023-02-01T08:59:21;6.60;84.20
10891;DHT22;5498;50.928;11.598;2023-02-01T09:02:23;6.60;84.20
10891;DHT22;5498;50.928;11.598;2023-02-01T09:05:25;6.60;84.30
10891;DHT22;5498;50.928;11.598;2023-02-01T09:08:28;6.60;84.50
10891;DHT22;5498;50.928;11.598;2023-02-01T09:11:30;6.60;84.80
10891;DHT22;5498;50.928;11.598;2023-02-01T09:14:33;6.60;85.20
10891;DHT22;5498;50.928;11.598;2023-02-01T09:17:36;6.70;85.10
10891;DHT22;5498;50.928;11.598;2023-02-01T09:20:38;6.70;85.30
10891;DHT22;5498;50.928;11.598;2023-02-01T09:23:40;6.70;84.80
10891;DHT22;5498;50.928;11.598;2023-02-01T09:26:41;6.70;84.80
10891;DHT22;5498;50.928;11.598;2023-02-01T09:29:45;6.80;84.80
10891;DHT22;5498;50.928;11.598;2023-02-01T09:32:50;6.90;84.20
10891;DHT22;5498;50.928;11.598;2023-02-01T09:35:55;6.90;83.60
10891;DHT22;5498;50.928;11.598;2023-02-01T09:38:58;7.00;83.10
10891;DHT22;5498;50.928;11.598;2023-02-01T09:42:07;7.00;82.80
10891;DHT22;5498;50.928;11.598;2023-02-01T09:45:24;7.00;82.80
10891;DHT22;5498;50.928;11.598;2023-02-01T09:48:32;7.10;82.50
10891;DHT22;5498;50.928;11.598;2023-02-01T09:51:39;7.10;82.10
10891;DHT22;5498;50.928;11.598;2023-02-01T09:54:49;7.20;81.80
10891;DHT22;5498;50.928;11.598;2023-02-01T09:57:58;7.30;81.70
10891;DHT22;5498;50.928;11.598;2023-02-01T10:01:08;7.30;81.50
10891;DHT22;5498;50.928;11.598;2023-02-01T10:04:15;7.40;81.30
10891;DHT22;5498;50.928;11.598;2023-02-01T10:07:25;7.50;81.50
10891;DHT22;5498;50.928;11.598;2023-02-01T10:10:38;7.60;81.10
10891;DHT22;5498;50.928;11.598;2023-02-01T10:13:50;7.60;81.00
10891;DHT22;5498;50.928;11.598;2023-02-01T10:17:02;7.70;81.00
10891;DHT22;5498;50.928;11.598;2023-02-01T10:20:11;7.70;81.80
10891;DHT22;5498;50.928;11.598;2023-02-01T10:23:36;7.70;81.10
10891;DHT22;5498;50.928;11.598;2023-02-01T10:26:59;7.80;80.90
10891;DHT22;5498;50.928;11.598;2023-02-01T10:30:12;7.90;80.70
10891;DHT22;5498;50.928;11.598;2023-02-01T10:33:24;8.00;80.50
10891;DHT22;5498;50.928;11.598;2023-02-01T10:36:32;8.20;79.80
10891;DHT22;5498;50.928;11.598;2023-02-01T10:39:38;8.20;79.50
10891;DHT22;5498;50.928;11.598;2023-02-01T10:42:40;8.30;78.90
10891;DHT22;5498;50.928;11.598;2023-02-01T10:45:42;8.50;79.00
10891;DHT22;5498;50.928;11.598;2023-02-01T10:48:46;8.70;78.70
10891;DHT22;5498;50.928;11.598;2023-02-01T10:51:54;8.80;78.30
10891;DHT22;5498;50.928;11.598;2023-02-01T10:55:27;9.00;77.80
10891;DHT22;5498;50.928;11.598;2023-02-01T10:58:44;9.20;77.40
10891;DHT22;5498;50.928;11.598;2023-02-01T11:01:48;9.30;76.50
10891;DHT22;5498;50.928;11.598;2023-02-01T11:05:00;9.50;76.20
10891;DHT22;5498;50.928;11.598;2023-02-01T11:08:03;9.60;76.00
10891;DHT22;5498;50.928;11.598;2023-02-01T11:11:05;9.70;74.70
10891;DHT22;5498;50.928;11.598;2023-02-01T11:14:14;9.80;74.00
10891;DHT22;5498;50.928;11.598;2023-02-01T11:17:26;9.80;73.90
10891;DHT22;5498;50.928;11.598;2023-02-01T11:20:38;9.80;73.40
10891;DHT22;5498;50.928;11.598;2023-02-01T11:23:43;9.70;73.10
10891;DHT22;5498;50.928;11.598;2023-02-01T11:26:46;9.60;73.30
10891;DHT22;5498;50.928;11.598;2023-02-01T11:29:51;9.60;73.40
10891;DHT22;5498;50.928;11.598;2023-02-01T11:32:54;9.60;73.60
10891;DHT22;5498;50.928;11.598;2023-02-01T11:36:00;9.60;73.20
10891;DHT22;5498;50.928;11.598;2023-02-01T11:39:23;9.60;72.90
10891;DHT22;5498;50.928;11.598;2023-02-01T11:42:27;9.50;71.60
10891;DHT22;5498;50.928;11.598;2023-02-01T11:45:31;9.50;72.30
10891;DHT22;5498;50.928;11.598;2023-02-01T11:48:34;9.50;72.80
10891;DHT22;5498;50.928;11.598;2023-02-01T11:51:46;9.50;72.30
10891;DHT22;5498;50.928;11.598;2023-02-01T11:55:13;9.40;72.20
10891;DHT22;5498;50.928;11.598;2023-02-01T11:58:32;9.40;72.30
10891;DHT22;5498;50.928;11.598;2023-02-01T12:02:29;9.40;72.70
10891;DHT22;5498;50.928;11.598;2023-02-01T12:05:52;9.40;72.90
10891;DHT22;5498;50.928;11.598;2023-02-01T12:09:18;9.40;72.80
10891;DHT22;5498;50.928;11.598;2023-02-01T12:12:34;9.30;72.90
10891;DHT22;5498;50.928;11.598;2023-02-01T12:15:50;9.20;73.00
10891;DHT22;5498;50.928;11.598;2023-02-01T12:19:18;9.20;73.30
10891;DHT22;5498;50.928;11.598;2023-02-01T12:22:39;9.20;73.50
10891;DHT22;5498;50.928;11.598;2023-02-01T12:26:05;9.10;73.10
10891;DHT22;5498;50.928;11.598;2023-02-01T12:29:30;9.10;73.20
10891;DHT22;5498;50.928;11.598;2023-02-01T12:32:48;9.10;73.30
10891;DHT22;5498;50.928;11.598;2023-02-01T12:36:07;9.00;73.20
10891;DHT22;5498;50.928;11.598;2023-02-01T12:39:22;9.00;73.20
10891;DHT22;5498;50.928;11.598;2023-02-01T12:42:29;8.90;73.30
10891;DHT22;5498;50.928;11.598;2023-02-01T12:45:39;8.90;73.70
10891;DHT22;5498;50.928;11.598;2023-02-01T12:48:50;8.80;73.70
10891;DHT22;5498;50.928;11.598;2023-02-01T12:52:00;8.80;73.40
10891;DHT22;5498;50.928;11.598;2023-02-01T12:55:10;8.70;73.70
10891;DHT22;5498;50.928;11.598;2023-02-01T12:58:23;8.70;73.70
10891;DHT22;5498;50.928;11.598;2023-02-01T13:01:31;8.70;73.60
10891;DHT22;5498;50.928;11.598;2023-02-01T13:04:40;8.70;73.30
10891;DHT22;5498;50.928;11.598;2023-02-01T13:07:53;8.60;73.00
10891;DHT22;5498;50.928;11.598;2023-02-01T13:11:02;8.60;73.20
10891;DHT22;5498;50.928;11.598;2023-02-01T13:14:13;8.50;73.20
10891;DHT22;5498;50.928;11.598;2023-02-01T13:17:23;8.50;73.40
10891;DHT22;5498;50.928;11.598;2023-02-01T13:20:30;8.40;73.70
10891;DHT22;5498;50.928;11.598;2023-02-01T13:23:36;8.40;74.00
10891;DHT22;5498;50.928;11.598;2023-02-01T13:26:39;8.40;74.00
10891;DHT22;5498;50.928;11.598;2023-02-01T13:29:49;8.30;73.90
10891;DHT22;5498;50.928;11.598;2023-02-01T13:33:06;8.30;74.30
10891;DHT22;5498;50.928;11.598;2023-02-01T13:36:31;8.20;74.30
10891;DHT22;5498;50.928;11.598;2023-02-01T13:39:56;8.10;74.40
10891;DHT22;5498;50.928;11.598;2023-02-01T13:43:11;8.10;74.70
10891;DHT22;5498;50.928;11.598;2023-02-01T13:46:16;8.00;74.80
10891;DHT22;5498;50.928;11.598;2023-02-01T13:49:20;8.50;75.10
10891;DHT22;5498;50.928;11.598;2023-02-01T13:52:32;8.00;74.70
10891;DHT22;5498;50.928;11.598;2023-02-01T13:55:37;7.90;74.90
10891;DHT22;5498;50.928;11.598;2023-02-01T13:58:40;7.90;75.10
10891;DHT22;5498;50.928;11.598;2023-02-01T14:01:44;7.90;75.10
10891;DHT22;5498;50.928;11.598;2023-02-01T14:04:48;7.90;74.90
10891;DHT22;5498;50.928;11.598;2023-02-01T14:08:10;7.90;74.90
10891;DHT22;5498;50.928;11.598;2023-02-01T14:11:39;8.00;74.70
10891;DHT22;5498;50.928;11.598;2023-02-01T14:14:44;8.00;74.30
10891;DHT22;5498;50.928;11.598;2023-02-01T14:17:47;8.00;74.30
10891;DHT22;5498;50.928;11.598;2023-02-01T14:20:49;8.00;74.20
10891;DHT22;5498;50.928;11.598;2023-02-01T14:23:57;8.00;74.10
10891;DHT22;5498;50.928;11.598;2023-02-01T14:27:02;8.00;74.30
10891;DHT22;5498;50.928;11.598;2023-02-01T14:30:14;8.00;73.70
10891;DHT22;5498;50.928;11.598;2023-02-01T14:33:22;8.00;73.70
10891;DHT22;5498;50.928;11.598;2023-02-01T14:36:25;7.90;73.80
10891;DHT22;5498;50.928;11.598;2023-02-01T14:39:34;7.90;73.60
10891;DHT22;5498;50.928;11.598;2023-02-01T14:42:42;7.90;73.60
10891;DHT22;5498;50.928;11.598;2023-02-01T14:45:49;7.90;73.50
10891;DHT22;5498;50.928;11.598;2023-02-01T14:48:53;7.90;73.40
10891;DHT22;5498;50.928;11.598;2023-02-01T14:51:56;7.90;73.40
10891;DHT22;5498;50.928;11.598;2023-02-01T14:55:03;7.80;73.30
10891;DHT22;5498;50.928;11.598;2023-02-01T14:58:15;7.80;73.10
10891;DHT22;5498;50.928;11.598;2023-02-01T15:01:22;7.90;73.50
10891;DHT22;5498;50.928;11.598;2023-02-01T15:04:27;7.90;72.50
10891;DHT22;5498;50.928;11.598;2023-02-01T15:07:29;7.90;72.40
10891;DHT22;5498;50.928;11.598;2023-02-01T15:10:33;7.90;72.30
10891;DHT22;5498;50.928;11.598;2023-02-01T15:13:48;7.80;72.50
10891;DHT22;5498;50.928;11.598;2023-02-01T15:16:54;7.80;72.60
10891;DHT22;5498;50.928;11.598;2023-02-01T15:19:58;7.80;72.80
10891;DHT22;5498;50.928;11.598;2023-02-01T15:23:02;7.70;72.90
10891;DHT22;5498;50.928;11.598;2023-02-01T15:26:05;7.70;73.10
10891;DHT22;5498;50.928;11.598;2023-02-01T15:29:11;7.70;73.20
10891;DHT22;5498;50.928;11.598;2023-02-01T15:32:28;7.70;73.50
10891;DHT22;5498;50.928;11.598;2023-02-01T15:35:38;7.70;73.60
10891;DHT22;5498;50.928;11.598;2023-02-01T15:38:44;7.70;73.90
10891;DHT22;5498;50.928;11.598;2023-02-01T15:41:48;7.60;74.10
10891;DHT22;5498;50.928;11.598;2023-02-01T15:44:51;7.60;75.20
10891;DHT22;5498;50.928;11.598;2023-02-01T15:47:56;7.60;76.70
10891;DHT22;5498;50.928;11.598;2023-02-01T15:51:00;7.50;77.10
10891;DHT22;5498;50.928;11.598;2023-02-01T15:54:05;7.50;77.60
10891;DHT22;5498;50.928;11.598;2023-02-01T15:57:08;7.40;77.70
10891;DHT22;5498;50.928;11.598;2023-02-01T16:00:20;7.40;77.90
10891;DHT22;5498;50.928;11.598;2023-02-01T16:03:33;7.40;78.00
10891;DHT22;5498;50.928;11.598;2023-02-01T16:06:45;7.40;78.00
10891;DHT22;5498;50.928;11.598;2023-02-01T16:09:54;7.40;77.80
10891;DHT22;5498;50.928;11.598;2023-02-01T16:12:56;7.40;77.70
10891;DHT22;5498;50.928;11.598;2023-02-01T16:16:00;7.40;77.50
10891;DHT22;5498;50.928;11.598;2023-02-01T16:19:04;7.40;77.70
10891;DHT22;5498;50.928;11.598;2023-02-01T16:22:07;7.40;77.70
10891;DHT22;5498;50.928;11.598;2023-02-01T16:25:09;7.40;77.80
10891;DHT22;5498;50.928;11.598;2023-02-01T16:28:11;7.40;77.90
10891;DHT22;5498;50.928;11.598;2023-02-01T16:31:14;7.40;78.00
10891;DHT22;5498;50.928;11.598;2023-02-01T16:34:19;7.40;78.20
10891;DHT22;5498;50.928;11.598;2023-02-01T16:37:24;7.40;78.10
10891;DHT22;5498;50.928;11.598;2023-02-01T16:40:28;7.40;78.30
10891;DHT22;5498;50.928;11.598;2023-02-01T16:43:30;7.40;78.10
10891;DHT22;5498;50.928;11.598;2023-02-01T16:46:35;7.40;78.10
10891;DHT22;5498;50.928;11.598;2023-02-01T16:49:41;7.40;78.30
10891;DHT22;5498;50.928;11.598;2023-02-01T16:52:46;7.40;78.40
10891;DHT22;5498;50.928;11.598;2023-02-01T16:55:48;7.40;78.40
10891;DHT22;5498;50.928;11.598;2023-02-01T16:58:50;7.40;80.70
10891;DHT22;5498;50.928;11.598;2023-02-01T17:01:51;7.40;82.40
10891;DHT22;5498;50.928;11.598;2023-02-01T17:04:54;7.40;83.50
10891;DHT22;5498;50.928;11.598;2023-02-01T17:08:00;7.00;83.80
10891;DHT22;5498;50.928;11.598;2023-02-01T17:11:05;6.80;83.80
10891;DHT22;5498;50.928;11.598;2023-02-01T17:14:15;6.60;84.10
10891;DHT22;5498;50.928;11.598;2023-02-01T17:17:19;6.40;84.80
10891;DHT22;5498;50.928;11.598;2023-02-01T17:20:23;6.20;84.80
10891;DHT22;5498;50.928;11.598;2023-02-01T17:23:33;6.00;85.30
10891;DHT22;5498;50.928;11.598;2023-02-01T17:26:35;5.80;85.70
10891;DHT22;5498;50.928;11.598;2023-02-01T17:29:37;5.70;86.00
10891;DHT22;5498;50.928;11.598;2023-02-01T17:32:40;5.60;86.80
10891;DHT22;5498;50.928;11.598;2023-02-01T17:35:42;5.40;87.30
10891;DHT22;5498;50.928;11.598;2023-02-01T17:38:47;5.30;87.50
10891;DHT22;5498;50.928;11.598;2023-02-01T17:41:49;5.20;88.50
10891;DHT22;5498;50.928;11.598;2023-02-01T17:44:52;5.10;88.90
10891;DHT22;5498;50.928;11.598;2023-02-01T17:47:56;5.00;89.80
10891;DHT22;5498;50.928;11.598;2023-02-01T17:50:58;4.90;90.00
10891;DHT22;5498;50.928;11.598;2023-02-01T17:54:03;4.90;90.40
10891;DHT22;5498;50.928;11.598;2023-02-01T17:57:10;4.90;90.40
10891;DHT22;5498;50.928;11.598;2023-02-01T18:00:15;4.80;90.50
10891;DHT22;5498;50.928;11.598;2023-02-01T18:03:22;4.60;90.70
10891;DHT22;5498;50.928;11.598;2023-02-01T18:06:26;4.60;91.40
10891;DHT22;5498;50.928;11.598;2023-02-01T18:09:31;4.70;91.00
10891;DHT22;5498;50.928;11.598;2023-02-01T18:12:33;4.70;90.80
10891;DHT22;5498;50.928;11.598;2023-02-01T18:15:38;4.70;90.70
10891;DHT22;5498;50.928;11.598;2023-02-01T18:18:40;4.60;90.70
10891;DHT22;5498;50.928;11.598;2023-02-01T18:21:43;4.70;91.00
10891;DHT22;5498;50.928;11.598;2023-02-01T18:24:46;4.70;91.00
10891;DHT22;5498;50.928;11.598;2023-02-01T18:27:49;4.70;91.00
10891;DHT22;5498;50.928;11.598;2023-02-01T18:30:52;4.80;91.20
10891;DHT22;5498;50.928;11.598;2023-02-01T18:33:56;4.80;91.30
10891;DHT22;5498;50.928;11.598;2023-02-01T18:36:59;4.80;91.30
10891;DHT22;5498;50.928;11.598;2023-02-01T18:40:03;4.90;91.20
10891;DHT22;5498;50.928;11.598;2023-02-01T18:43:09;4.90;91.50
10891;DHT22;5498;50.928;11.598;2023-02-01T18:46:11;4.90;91.10
10891;DHT22;5498;50.928;11.598;2023-02-01T18:49:13;4.90;91.20
10891;DHT22;5498;50.928;11.598;2023-02-01T18:52:17;4.90;91.20
10891;DHT22;5498;50.928;11.598;2023-02-01T18:55:20;5.00;91.10
10891;DHT22;5498;50.928;11.598;2023-02-01T18:58:23;5.00;91.00
10891;DHT22;5498;50.928;11.598;2023-02-01T19:01:26;5.00;91.20
10891;DHT22;5498;50.928;11.598;2023-02-01T19:04:28;5.00;91.20
10891;DHT22;5498;50.928;11.598;2023-02-01T19:07:30;5.00;91.30
10891;DHT22;5498;50.928;11.598;2023-02-01T19:10:33;5.00;91.30
10891;DHT22;5498;50.928;11.598;2023-02-01T19:13:38;5.00;91.40
10891;DHT22;5498;50.928;11.598;2023-02-01T19:16:40;5.00;91.50
10891;DHT22;5498;50.928;11.598;2023-02-01T19:19:42;5.00;91.20
10891;DHT22;5498;50.928;11.598;2023-02-01T19:22:45;5.10;91.00
10891;DHT22;5498;50.928;11.598;2023-02-01T19:25:49;5.00;91.00
10891;DHT22;5498;50.928;11.598;2023-02-01T19:28:50;5.00;91.00
10891;DHT22;5498;50.928;11.598;2023-02-01T19:31:52;5.00;91.10
10891;DHT22;5498;50.928;11.598;2023-02-01T19:34:54;5.00;91.10
10891;DHT22;5498;50.928;11.598;2023-02-01T19:37:56;5.00;91.10
10891;DHT22;5498;50.928;11.598;2023-02-01T19:41:00;4.90;91.10
10891;DHT22;5498;50.928;11.598;2023-02-01T19:44:04;4.90;91.10
10891;DHT22;5498;50.928;11.598;2023-02-01T19:47:06;4.50;91.00
10891;DHT22;5498;50.928;11.598;2023-02-01T19:50:14;4.90;91.10
10891;DHT22;5498;50.928;11.598;2023-02-01T19:53:17;5.00;91.10